Time;durP1;ratioP1;P1;durP2;ratioP2;P2;SDS_P1;SDS_P2;PMS_P1;PMS_P2;Temp;Humidity;BMP_temperature;BMP_pressure;BME280_temperature;BME280_humidity;BME280_pressure;Samples;Min_cycle;Max_cycle;Signal;HPM_P1;HPM_P2
2021/07/13 00:02:11;;;;;;;1.50;0.90;;;21.80;98.10;;;;;;5006513;28;20457;-82
2021/07/13 00:04:38;;;;;;;1.50;0.90;;;21.80;98.20;;;;;;5005498;28;20488;-82
2021/07/13 00:07:05;;;;;;;1.50;0.90;;;21.80;98.20;;;;;;5005169;28;20465;-82
2021/07/13 00:09:32;;;;;;;1.50;0.90;;;21.80;98.10;;;;;;5003412;28;20469;-81
2021/07/13 00:11:59;;;;;;;1.50;0.90;;;21.80;98.20;;;;;;5003728;28;20469;-80
2021/07/13 00:14:26;;;;;;;1.50;0.90;;;21.80;98.20;;;;;;5006453;28;20504;-80
2021/07/13 00:16:55;;;;;;;1.50;0.90;;;21.80;98.20;;;;;;5009963;28;20481;-80
2021/07/13 00:19:23;;;;;;;1.50;0.90;;;21.80;98.20;;;;;;5003666;28;20470;-81
2021/07/13 00:21:49;;;;;;;1.50;0.90;;;21.80;98.20;;;;;;5004523;28;20461;-80
2021/07/13 00:24:16;;;;;;;1.50;0.90;;;21.70;98.20;;;;;;5006206;28;20461;-80
2021/07/13 00:26:43;;;;;;;1.50;0.90;;;21.70;98.20;;;;;;5000961;28;20465;-80
2021/07/13 00:29:10;;;;;;;1.50;0.90;;;21.60;98.20;;;;;;5006893;28;20472;-81
2021/07/13 00:31:37;;;;;;;1.50;0.90;;;21.60;98.20;;;;;;5001571;28;20468;-81
2021/07/13 00:34:04;;;;;;;1.50;0.90;;;21.60;98.20;;;;;;4999845;28;20468;-81
2021/07/13 00:36:32;;;;;;;1.50;0.97;;;21.60;98.20;;;;;;4996507;28;20477;-82
2021/07/13 00:38:59;;;;;;;1.50;0.90;;;21.50;98.20;;;;;;4998891;28;20476;-81
2021/07/13 00:41:25;;;;;;;1.50;0.90;;;21.50;98.20;;;;;;4995321;28;20457;-82
2021/07/13 00:43:52;;;;;;;1.50;0.90;;;21.40;98.20;;;;;;4994126;28;20480;-80
2021/07/13 00:46:19;;;;;;;1.50;0.90;;;21.40;98.20;;;;;;4992649;28;20841;-81
2021/07/13 00:48:47;;;;;;;1.50;0.90;;;21.30;98.20;;;;;;4998771;28;20465;-80
2021/07/13 00:51:13;;;;;;;1.50;0.90;;;21.30;98.20;;;;;;5001676;28;20453;-81
2021/07/13 00:53:44;;;;;;;1.50;0.90;;;21.20;98.20;;;;;;4996182;28;20461;-81
2021/07/13 00:56:11;;;;;;;1.50;0.90;;;21.20;98.20;;;;;;4996799;28;20492;-80
2021/07/13 00:58:38;;;;;;;1.50;0.90;;;21.20;98.20;;;;;;4995258;28;20457;-80
2021/07/13 01:01:05;;;;;;;1.50;0.90;;;21.20;98.20;;;;;;4989699;28;20480;-79
2021/07/13 01:03:33;;;;;;;1.50;0.90;;;21.10;98.20;;;;;;4991502;28;20985;-79
2021/07/13 01:06:00;;;;;;;1.50;0.87;;;21.10;98.20;;;;;;4994750;28;20477;-78
2021/07/13 01:08:35;;;;;;;1.50;0.90;;;21.10;98.20;;;;;;4995060;28;20465;-78
2021/07/13 01:11:12;;;;;;;1.50;0.90;;;21.00;98.20;;;;;;4994636;28;20492;-81
2021/07/13 01:13:43;;;;;;;1.50;0.90;;;21.00;98.20;;;;;;4991406;28;20457;-80
2021/07/13 01:16:14;;;;;;;1.50;0.90;;;20.90;98.20;;;;;;4990123;28;20500;-80
2021/07/13 01:18:48;;;;;;;1.50;0.90;;;20.90;98.20;;;;;;4988113;28;20461;-79
2021/07/13 01:21:41;;;;;;;1.50;0.90;;;20.90;98.20;;;;;;4989497;28;20469;-79
2021/07/13 01:24:28;;;;;;;1.50;0.90;;;20.80;98.20;;;;;;4990272;28;20469;-79
2021/07/13 01:27:09;;;;;;;1.50;0.90;;;20.80;98.20;;;;;;4986976;28;20457;-80
2021/07/13 01:29:38;;;;;;;1.50;0.90;;;20.80;98.20;;;;;;4988105;28;20532;-79
2021/07/13 01:32:06;;;;;;;1.50;0.90;;;20.70;98.20;;;;;;4990717;28;20468;-78
2021/07/13 01:34:39;;;;;;;1.50;0.90;;;20.70;98.20;;;;;;4991229;28;20496;-78
2021/07/13 01:37:09;;;;;;;1.50;0.93;;;20.60;98.20;;;;;;4990519;28;20864;-78
2021/07/13 01:39:37;;;;;;;1.50;0.90;;;20.60;98.20;;;;;;4989606;28;20472;-78
2021/07/13 01:42:07;;;;;;;1.50;0.90;;;20.50;98.20;;;;;;4991633;28;20468;-78
2021/07/13 01:44:36;;;;;;;1.50;0.90;;;20.40;98.20;;;;;;4993816;28;20778;-76
2021/07/13 01:47:05;;;;;;;1.50;0.90;;;20.20;98.20;;;;;;4978498;28;20469;-75
2021/07/13 01:49:33;;;;;;;1.50;0.90;;;20.20;98.20;;;;;;4988552;28;20457;-77
2021/07/13 01:52:02;;;;;;;1.50;0.90;;;20.10;98.20;;;;;;4996785;28;20469;-77
2021/07/13 01:54:30;;;;;;;1.50;0.90;;;20.10;98.20;;;;;;4991182;28;21068;-78
2021/07/13 01:56:59;;;;;;;1.50;0.90;;;20.10;98.20;;;;;;4990297;28;20503;-77
2021/07/13 01:59:27;;;;;;;1.50;0.97;;;20.00;98.20;;;;;;4992422;28;20467;-78
2021/07/13 02:01:57;;;;;;;1.50;0.90;;;20.00;98.20;;;;;;4993349;28;20457;-77
2021/07/13 02:04:29;;;;;;;1.50;0.90;;;19.90;98.20;;;;;;4985210;28;20527;-77
2021/07/13 02:07:00;;;;;;;1.50;0.90;;;19.80;98.20;;;;;;4990102;28;20469;-77
2021/07/13 02:09:27;;;;;;;1.50;0.90;;;19.80;98.20;;;;;;4988041;28;20476;-77
2021/07/13 02:11:56;;;;;;;1.50;0.97;;;19.80;98.20;;;;;;4992766;28;20473;-78
2021/07/13 02:14:23;;;;;;;1.50;0.90;;;19.80;98.20;;;;;;4988354;28;20484;-78
2021/07/13 02:16:50;;;;;;;1.50;0.90;;;19.80;98.20;;;;;;4991825;28;20485;-78
2021/07/13 02:19:17;;;;;;;1.50;0.90;;;19.80;98.20;;;;;;4986608;28;20476;-77
2021/07/13 02:21:45;;;;;;;1.50;0.90;;;19.80;98.20;;;;;;4990908;28;20461;-77
2021/07/13 02:24:12;;;;;;;1.50;0.90;;;19.80;98.20;;;;;;4987046;28;20971;-77
2021/07/13 02:26:43;;;;;;;1.50;0.93;;;19.70;98.20;;;;;;4990868;28;20461;-77
2021/07/13 02:29:16;;;;;;;1.50;0.90;;;19.60;98.20;;;;;;4986209;28;21054;-77
2021/07/13 02:31:48;;;;;;;1.50;0.90;;;19.50;98.20;;;;;;4989994;28;20472;-78
2021/07/13 02:34:18;;;;;;;1.50;0.90;;;19.40;98.20;;;;;;4988454;28;20472;-77
2021/07/13 02:36:49;;;;;;;1.50;0.90;;;19.50;98.20;;;;;;4992733;28;20511;-77
2021/07/13 02:39:18;;;;;;;1.50;0.90;;;19.50;98.20;;;;;;4992664;28;20469;-78
2021/07/13 02:41:51;;;;;;;1.70;1.10;;;19.50;98.20;;;;;;4994700;28;20960;-77
2021/07/13 02:44:19;;;;;;;1.90;1.30;;;19.50;98.20;;;;;;4995030;28;20465;-78
2021/07/13 02:46:46;;;;;;;1.50;0.90;;;19.50;98.20;;;;;;4992751;28;20457;-78
2021/07/13 02:49:19;;;;;;;1.50;0.90;;;19.50;98.20;;;;;;4994581;28;20472;-79
2021/07/13 02:51:48;;;;;;;1.50;0.90;;;19.50;98.20;;;;;;5004633;28;20973;-78
2021/07/13 02:54:17;;;;;;;1.50;0.90;;;19.50;98.20;;;;;;4986503;28;20488;-79
2021/07/13 02:56:46;;;;;;;1.50;0.90;;;19.50;98.20;;;;;;4994925;28;21003;-79
2021/07/13 02:59:13;;;;;;;1.50;0.90;;;19.50;98.20;;;;;;4994787;28;20460;-78
2021/07/13 03:01:41;;;;;;;1.50;1.00;;;19.50;98.20;;;;;;4994631;28;20549;-78
2021/07/13 03:04:07;;;;;;;1.50;0.90;;;19.60;98.20;;;;;;4994104;28;20469;-78
2021/07/13 03:06:36;;;;;;;1.60;1.33;;;19.60;98.20;;;;;;4997428;28;20667;-76
2021/07/13 03:09:05;;;;;;;1.50;0.90;;;19.60;98.20;;;;;;4997020;28;20489;-78
2021/07/13 03:11:33;;;;;;;1.50;0.90;;;19.60;98.20;;;;;;4998053;28;20908;-80
2021/07/13 03:14:02;;;;;;;1.50;0.90;;;19.60;98.20;;;;;;4993167;28;20464;-80
2021/07/13 03:16:31;;;;;;;1.50;0.90;;;19.60;98.20;;;;;;4990413;28;20490;-80
2021/07/13 03:18:58;;;;;;;1.50;0.90;;;19.60;98.20;;;;;;4990701;28;20952;-78
2021/07/13 03:21:26;;;;;;;1.50;0.90;;;19.60;98.20;;;;;;4992802;28;20488;-77
2021/07/13 03:23:54;;;;;;;1.50;0.90;;;19.60;98.20;;;;;;4993886;28;20467;-77
2021/07/13 03:26:22;;;;;;;1.50;0.90;;;19.50;98.20;;;;;;4992305;28;20489;-77
2021/07/13 03:28:49;;;;;;;1.50;0.90;;;19.50;98.20;;;;;;4989128;28;20457;-76
2021/07/13 03:31:17;;;;;;;1.50;0.90;;;19.40;98.20;;;;;;4991353;28;20468;-77
2021/07/13 03:33:44;;;;;;;1.50;0.90;;;19.40;98.20;;;;;;4988032;28;20461;-77
2021/07/13 03:36:11;;;;;;;1.53;1.00;;;19.40;98.20;;;;;;4990872;28;20500;-77
2021/07/13 03:38:38;;;;;;;1.50;0.90;;;19.30;98.20;;;;;;4987881;28;20465;-76
2021/07/13 03:41:06;;;;;;;1.50;1.00;;;19.40;98.20;;;;;;4989064;28;20476;-77
2021/07/13 03:43:34;;;;;;;1.50;0.90;;;19.40;98.20;;;;;;4989813;28;20473;-76
2021/07/13 03:46:01;;;;;;;1.50;0.90;;;19.30;98.20;;;;;;4992538;28;20480;-77
2021/07/13 03:48:28;;;;;;;1.50;0.93;;;19.30;98.20;;;;;;4985414;28;20465;-77
2021/07/13 03:50:55;;;;;;;1.50;1.00;;;19.20;98.20;;;;;;4988342;28;20469;-75
2021/07/13 03:53:22;;;;;;;1.50;0.90;;;19.20;98.20;;;;;;4988144;28;20465;-75
2021/07/13 03:55:49;;;;;;;1.50;1.00;;;19.20;98.20;;;;;;4987905;28;20879;-75
2021/07/13 03:58:16;;;;;;;1.50;0.97;;;19.20;98.20;;;;;;4984537;28;21214;-75
2021/07/13 04:00:44;;;;;;;1.50;0.90;;;19.30;98.20;;;;;;4989531;28;20469;-75
2021/07/13 04:03:10;;;;;;;1.50;0.90;;;19.30;98.20;;;;;;4986605;28;20473;-75
2021/07/13 04:05:37;;;;;;;1.50;0.90;;;19.30;98.20;;;;;;4987934;28;20496;-75
2021/07/13 04:08:05;;;;;;;2.67;1.73;;;19.30;98.20;;;;;;4990369;28;20458;-75
2021/07/13 04:10:31;;;;;;;1.50;0.90;;;19.30;98.20;;;;;;4989606;28;20473;-75
2021/07/13 04:12:58;;;;;;;1.50;1.00;;;19.30;98.20;;;;;;4987833;28;20469;-75
2021/07/13 04:15:25;;;;;;;1.50;0.90;;;19.30;98.20;;;;;;4987011;28;20484;-75
2021/07/13 04:17:53;;;;;;;1.50;0.90;;;19.30;98.20;;;;;;4985900;28;20652;-74
2021/07/13 04:20:21;;;;;;;1.50;0.90;;;19.30;98.20;;;;;;4986463;28;20514;-74
2021/07/13 04:22:49;;;;;;;1.50;0.90;;;19.30;98.20;;;;;;4986428;28;20832;-74
2021/07/13 04:25:16;;;;;;;1.50;0.90;;;19.20;98.20;;;;;;4986770;28;20832;-74
2021/07/13 04:27:44;;;;;;;1.50;0.90;;;19.30;98.20;;;;;;4989308;28;20453;-75
2021/07/13 04:30:12;;;;;;;1.50;0.90;;;19.30;98.20;;;;;;4989336;28;20535;-76
2021/07/13 04:32:39;;;;;;;1.50;0.90;;;19.30;98.20;;;;;;4988310;28;20475;-75
2021/07/13 04:35:08;;;;;;;1.50;1.00;;;19.30;98.20;;;;;;4989652;28;20543;-75
2021/07/13 04:37:35;;;;;;;1.50;0.90;;;19.30;98.20;;;;;;4987780;28;20488;-75
2021/07/13 04:40:02;;;;;;;1.50;0.90;;;19.30;98.20;;;;;;4985896;28;20473;-76
2021/07/13 04:42:32;;;;;;;1.50;0.90;;;19.40;98.20;;;;;;4988622;28;20472;-76
2021/07/13 04:44:59;;;;;;;1.50;0.90;;;19.40;98.20;;;;;;4981704;28;20512;-73
2021/07/13 04:47:26;;;;;;;2.23;1.30;;;19.40;98.20;;;;;;4989822;28;20472;-76
2021/07/13 04:49:52;;;;;;;1.50;0.90;;;19.40;98.20;;;;;;4989379;28;20990;-76
2021/07/13 04:52:21;;;;;;;1.50;1.00;;;19.40;98.20;;;;;;4989695;28;20612;-77
2021/07/13 04:54:48;;;;;;;1.50;1.00;;;19.40;98.20;;;;;;4990378;28;20485;-76
2021/07/13 04:57:15;;;;;;;1.50;0.90;;;19.50;98.20;;;;;;4986403;28;20500;-77
2021/07/13 04:59:42;;;;;;;1.50;0.90;;;19.40;98.20;;;;;;4986608;28;20461;-77
2021/07/13 05:02:08;;;;;;;1.50;0.90;;;19.50;98.20;;;;;;4984726;28;20548;-76
2021/07/13 05:04:35;;;;;;;1.50;0.90;;;19.50;98.20;;;;;;4987485;28;20489;-75
2021/07/13 05:07:02;;;;;;;1.50;0.90;;;19.50;98.20;;;;;;4988560;28;20465;-75
2021/07/13 05:09:30;;;;;;;1.50;0.90;;;19.50;98.20;;;;;;4988659;28;20473;-75
2021/07/13 05:11:57;;;;;;;1.50;0.90;;;19.50;98.20;;;;;;4988990;28;20476;-77
2021/07/13 05:14:24;;;;;;;1.50;0.90;;;19.50;98.20;;;;;;4989873;28;20480;-77
2021/07/13 05:16:50;;;;;;;1.50;0.90;;;19.50;98.20;;;;;;4987807;28;21003;-76
2021/07/13 05:19:17;;;;;;;1.50;0.90;;;19.40;98.20;;;;;;4983132;28;20477;-74
2021/07/13 05:21:49;;;;;;;1.50;0.90;;;19.40;98.20;;;;;;4978243;28;21165;-75
2021/07/13 05:24:17;;;;;;;1.50;0.90;;;19.40;98.20;;;;;;4990551;28;20527;-76
2021/07/13 05:26:50;;;;;;;1.50;0.90;;;19.40;98.20;;;;;;4986867;28;20920;-74
2021/07/13 05:29:17;;;;;;;1.50;0.90;;;19.40;98.20;;;;;;4985788;28;20512;-74
2021/07/13 05:31:44;;;;;;;1.50;0.90;;;19.40;98.20;;;;;;4984252;28;20540;-76
2021/07/13 05:34:14;;;;;;;1.50;0.90;;;19.40;98.20;;;;;;4982080;28;20491;-74
2021/07/13 05:36:41;;;;;;;1.50;0.93;;;19.30;98.20;;;;;;4989602;28;20584;-76
2021/07/13 05:39:12;;;;;;;1.50;0.90;;;19.30;98.20;;;;;;4992267;28;20476;-76
2021/07/13 05:41:39;;;;;;;1.50;0.90;;;19.30;98.20;;;;;;4989722;28;20496;-76
2021/07/13 05:44:07;;;;;;;1.50;0.90;;;19.20;98.20;;;;;;4982885;28;20472;-76
2021/07/13 05:46:35;;;;;;;1.50;1.00;;;19.30;98.20;;;;;;4991355;28;20894;-76
2021/07/13 05:49:02;;;;;;;1.50;0.90;;;19.30;98.20;;;;;;4989823;28;20550;-76
2021/07/13 05:51:29;;;;;;;1.50;0.90;;;19.30;98.20;;;;;;4989372;28;20568;-74
2021/07/13 05:53:57;;;;;;;1.50;0.97;;;19.30;98.20;;;;;;4989769;28;20461;-75
2021/07/13 05:56:24;;;;;;;1.60;1.07;;;19.30;98.20;;;;;;4986882;28;20485;-76
2021/07/13 05:58:51;;;;;;;1.50;0.90;;;19.30;98.20;;;;;;4987775;28;21248;-77
2021/07/13 06:01:19;;;;;;;1.50;0.90;;;19.30;98.20;;;;;;4990527;28;20526;-76
2021/07/13 06:03:47;;;;;;;1.50;0.93;;;19.40;98.20;;;;;;4988916;28;20477;-75
2021/07/13 06:06:14;;;;;;;1.50;0.90;;;19.40;98.20;;;;;;4987801;28;20572;-76
2021/07/13 06:08:40;;;;;;;1.50;0.90;;;19.40;98.20;;;;;;4986649;28;20853;-75
2021/07/13 06:11:07;;;;;;;1.50;0.90;;;19.50;98.20;;;;;;4988023;28;20519;-74
2021/07/13 06:13:34;;;;;;;1.50;0.90;;;19.50;98.20;;;;;;4986285;28;20877;-75
2021/07/13 06:16:01;;;;;;;1.50;0.90;;;19.50;98.20;;;;;;4990391;28;20488;-74
2021/07/13 06:18:30;;;;;;;1.50;0.90;;;19.60;98.20;;;;;;4989868;28;20495;-74
2021/07/13 06:20:57;;;;;;;1.50;0.90;;;19.60;98.20;;;;;;4987543;28;20551;-74
2021/07/13 06:23:24;;;;;;;1.50;0.90;;;19.60;98.20;;;;;;4988948;28;20564;-74
2021/07/13 06:25:51;;;;;;;1.50;0.90;;;19.60;98.20;;;;;;4994881;28;20492;-74
2021/07/13 06:28:24;;;;;;;1.50;0.90;;;19.60;98.20;;;;;;4989759;28;20908;-74
2021/07/13 06:30:51;;;;;;;1.50;0.90;;;19.60;98.20;;;;;;4992188;28;20559;-76
2021/07/13 06:33:18;;;;;;;1.50;0.90;;;19.50;98.20;;;;;;4987781;28;20469;-74
2021/07/13 06:35:48;;;;;;;1.50;0.90;;;19.50;98.20;;;;;;4984257;28;20508;-74
2021/07/13 06:38:15;;;;;;;1.50;0.90;;;19.50;98.20;;;;;;4988364;28;20488;-74
2021/07/13 06:40:43;;;;;;;1.50;0.90;;;19.40;98.20;;;;;;4987589;28;20473;-75
2021/07/13 06:43:10;;;;;;;1.50;0.90;;;19.40;98.20;;;;;;4985288;28;20838;-74
2021/07/13 06:45:36;;;;;;;1.50;0.93;;;19.40;98.20;;;;;;4985680;28;20480;-74
2021/07/13 06:48:04;;;;;;;1.50;0.90;;;19.50;98.20;;;;;;4988020;28;20495;-74
2021/07/13 06:50:31;;;;;;;1.50;0.90;;;19.50;98.20;;;;;;4986797;28;20810;-74
2021/07/13 06:52:59;;;;;;;1.50;0.90;;;19.50;98.20;;;;;;4985667;28;20902;-74
2021/07/13 06:55:26;;;;;;;1.50;0.90;;;19.60;98.20;;;;;;4986673;28;20495;-75
2021/07/13 06:57:53;;;;;;;1.50;0.90;;;19.60;98.20;;;;;;4986632;28;20580;-75
2021/07/13 07:00:21;;;;;;;1.50;0.90;;;19.60;98.20;;;;;;4987719;28;20558;-76
2021/07/13 07:02:47;;;;;;;1.50;0.90;;;19.60;98.20;;;;;;4982326;28;20776;-76
2021/07/13 07:05:15;;;;;;;1.50;0.90;;;19.60;98.20;;;;;;4988594;28;20577;-77
2021/07/13 07:07:46;;;;;;;1.50;0.90;;;19.60;98.20;;;;;;4985533;28;20887;-76
2021/07/13 07:10:16;;;;;;;1.50;0.90;;;19.60;98.20;;;;;;4987555;28;20464;-76
2021/07/13 07:12:46;;;;;;;1.50;0.90;;;19.60;98.20;;;;;;4987666;28;20752;-76
2021/07/13 07:15:14;;;;;;;1.50;0.90;;;19.60;98.20;;;;;;4985767;28;21012;-76
2021/07/13 07:17:45;;;;;;;1.50;1.00;;;19.60;98.20;;;;;;4989324;28;20857;-76
2021/07/13 07:20:13;;;;;;;1.50;0.90;;;19.60;98.20;;;;;;4989051;28;20991;-77
2021/07/13 07:22:41;;;;;;;1.50;0.90;;;19.60;98.20;;;;;;4988818;28;20557;-76
2021/07/13 07:25:09;;;;;;;1.50;0.90;;;19.60;98.20;;;;;;4988502;28;20499;-76
2021/07/13 07:27:39;;;;;;;1.50;0.90;;;19.60;98.20;;;;;;4990785;28;21095;-77
2021/07/13 07:30:07;;;;;;;1.50;0.90;;;19.60;98.20;;;;;;4993725;28;20571;-77
2021/07/13 07:32:35;;;;;;;1.50;0.90;;;19.60;98.20;;;;;;4992765;28;20473;-78
2021/07/13 07:35:02;;;;;;;1.50;0.90;;;19.50;98.20;;;;;;4991504;28;20576;-79
2021/07/13 07:37:29;;;;;;;1.50;1.00;;;19.50;98.20;;;;;;4989523;28;20497;-78
2021/07/13 07:39:56;;;;;;;1.50;0.90;;;19.30;98.20;;;;;;4990623;28;20527;-77
2021/07/13 07:42:23;;;;;;;1.50;0.90;;;19.30;98.20;;;;;;4986197;28;20473;-77
2021/07/13 07:44:52;;;;;;;1.50;0.90;;;19.20;98.20;;;;;;4986330;28;20485;-75
2021/07/13 07:47:19;;;;;;;1.50;0.90;;;19.20;98.20;;;;;;4986266;28;20475;-76
2021/07/13 07:49:46;;;;;;;1.50;0.90;;;19.20;98.20;;;;;;4986992;28;20498;-76
2021/07/13 07:52:13;;;;;;;1.50;1.00;;;19.30;98.20;;;;;;4989529;28;20585;-76
2021/07/13 07:54:41;;;;;;;1.50;0.90;;;19.30;98.20;;;;;;4991392;28;21093;-76
2021/07/13 07:57:08;;;;;;;1.50;0.97;;;19.20;98.20;;;;;;4989643;28;20488;-76
2021/07/13 07:59:35;;;;;;;1.50;0.90;;;19.20;98.20;;;;;;4988985;28;20474;-76
2021/07/13 08:02:04;;;;;;;1.60;1.20;;;19.20;98.20;;;;;;4989336;28;20469;-77
2021/07/13 08:04:33;;;;;;;1.50;0.90;;;19.20;98.20;;;;;;4986866;28;20492;-76
2021/07/13 08:07:00;;;;;;;1.60;1.00;;;19.20;98.20;;;;;;4989867;28;20465;-77
2021/07/13 08:09:27;;;;;;;1.50;0.90;;;19.10;98.20;;;;;;4983409;28;20473;-77
2021/07/13 08:11:54;;;;;;;1.50;0.90;;;19.10;98.20;;;;;;4987688;28;20860;-76
2021/07/13 08:14:20;;;;;;;1.50;0.93;;;19.10;98.20;;;;;;4983189;28;20488;-77
2021/07/13 08:16:49;;;;;;;1.50;0.90;;;19.10;98.20;;;;;;4985622;28;20476;-76
2021/07/13 08:19:18;;;;;;;1.50;0.90;;;19.10;98.20;;;;;;4992330;28;20615;-76
2021/07/13 08:21:45;;;;;;;1.50;0.90;;;19.10;98.20;;;;;;4989546;28;20501;-77
2021/07/13 08:24:12;;;;;;;1.60;1.20;;;19.20;98.20;;;;;;4986497;28;20504;-76
2021/07/13 08:26:39;;;;;;;1.50;0.90;;;19.20;98.20;;;;;;4989097;28;20465;-77
2021/07/13 08:29:07;;;;;;;1.50;0.90;;;19.20;98.20;;;;;;4988920;28;20489;-77
2021/07/13 08:31:33;;;;;;;1.50;1.00;;;19.30;98.20;;;;;;4985083;28;20461;-76
2021/07/13 08:34:00;;;;;;;1.50;0.90;;;19.30;98.20;;;;;;4984994;28;20457;-76
2021/07/13 08:36:29;;;;;;;1.50;1.10;;;19.30;98.20;;;;;;4986108;28;20520;-77
2021/07/13 08:38:56;;;;;;;1.50;0.87;;;19.40;98.20;;;;;;4984849;28;20542;-76
2021/07/13 08:41:23;;;;;;;1.50;0.90;;;19.40;98.20;;;;;;4982567;28;20484;-78
2021/07/13 08:43:51;;;;;;;1.50;0.90;;;19.40;98.20;;;;;;4981094;28;20465;-77
2021/07/13 08:46:19;;;;;;;1.50;0.90;;;19.40;98.20;;;;;;4986003;28;20488;-77
2021/07/13 08:48:50;;;;;;;1.50;0.90;;;19.50;98.20;;;;;;4989598;28;20468;-78
2021/07/13 08:51:19;;;;;;;1.50;0.90;;;19.50;98.20;;;;;;4987012;28;20473;-77
2021/07/13 08:53:47;;;;;;;1.50;0.90;;;19.60;98.20;;;;;;4987532;28;20493;-78
2021/07/13 08:56:14;;;;;;;1.50;0.90;;;19.60;98.20;;;;;;4981024;28;20489;-77
2021/07/13 08:58:41;;;;;;;1.50;0.90;;;19.70;98.20;;;;;;4987356;28;20493;-77
2021/07/13 09:01:08;;;;;;;1.50;0.90;;;19.80;98.20;;;;;;4979525;28;20474;-77
2021/07/13 09:03:34;;;;;;;1.50;0.90;;;19.90;98.20;;;;;;4986541;28;20813;-78
2021/07/13 09:06:02;;;;;;;1.50;0.90;;;19.90;98.20;;;;;;4983754;28;20495;-77
2021/07/13 09:08:31;;;;;;;1.50;0.90;;;20.00;98.20;;;;;;4986097;28;20555;-77
2021/07/13 09:11:08;;;;;;;1.50;1.00;;;20.00;98.20;;;;;;4986746;28;20465;-76
2021/07/13 09:13:38;;;;;;;1.50;0.90;;;20.10;98.20;;;;;;4985517;28;20854;-78
2021/07/13 09:16:07;;;;;;;1.50;0.90;;;20.10;98.20;;;;;;4987452;28;21078;-77
2021/07/13 09:18:35;;;;;;;1.50;0.90;;;20.10;98.20;;;;;;4986163;28;20567;-77
2021/07/13 09:21:12;;;;;;;1.50;0.90;;;20.20;98.20;;;;;;4986582;28;20495;-77
2021/07/13 09:24:07;;;;;;;1.60;1.20;;;20.20;98.20;;;;;;4984468;28;20843;-77
2021/07/13 09:26:44;;;;;;;1.50;0.90;;;20.20;98.20;;;;;;4987641;28;20472;-77
2021/07/13 09:29:28;;;;;;;1.50;0.90;;;20.20;98.20;;;;;;4985877;28;20452;-77
2021/07/13 09:31:55;;;;;;;1.50;0.90;;;20.20;98.20;;;;;;4985316;28;20888;-77
2021/07/13 09:34:22;;;;;;;1.50;0.90;;;20.10;98.20;;;;;;4985106;28;20511;-77
2021/07/13 09:36:53;;;;;;;1.50;0.90;;;20.20;98.20;;;;;;4986815;28;20460;-77
2021/07/13 09:39:23;;;;;;;1.53;0.90;;;20.20;98.20;;;;;;4983576;28;20484;-78
2021/07/13 09:41:53;;;;;;;1.50;0.90;;;20.30;98.20;;;;;;4987124;28;20812;-77
2021/07/13 09:44:23;;;;;;;1.50;0.90;;;20.40;98.20;;;;;;4984516;28;20472;-77
2021/07/13 09:46:51;;;;;;;1.50;0.90;;;20.40;98.20;;;;;;4983184;28;20469;-77
2021/07/13 09:49:20;;;;;;;1.50;0.90;;;20.50;98.20;;;;;;4985909;28;20465;-78
2021/07/13 09:51:54;;;;;;;1.77;1.47;;;20.50;98.20;;;;;;4981639;28;20519;-78
2021/07/13 09:54:38;;;;;;;1.50;0.90;;;20.60;98.20;;;;;;4986455;28;20469;-77
2021/07/13 09:57:08;;;;;;;1.50;0.90;;;20.70;98.20;;;;;;4982055;28;20554;-78
2021/07/13 09:59:36;;;;;;;1.50;0.90;;;20.90;98.20;;;;;;4984480;28;20476;-77
2021/07/13 10:02:05;;;;;;;1.50;0.90;;;21.00;98.20;;;;;;4985244;28;20475;-78
2021/07/13 10:04:33;;;;;;;1.53;0.90;;;21.10;98.20;;;;;;4984433;28;20488;-76
2021/07/13 10:07:04;;;;;;;1.50;0.90;;;21.20;98.20;;;;;;4985163;28;20468;-77
2021/07/13 10:09:34;;;;;;;1.50;0.90;;;21.20;98.20;;;;;;4986134;28;20492;-77
2021/07/13 10:12:01;;;;;;;1.50;0.90;;;21.30;98.20;;;;;;4985008;28;20512;-76
2021/07/13 10:14:31;;;;;;;1.60;1.10;;;21.30;98.20;;;;;;4985026;28;20481;-77
2021/07/13 10:17:01;;;;;;;1.53;0.90;;;21.40;98.20;;;;;;4988266;28;20556;-78
2021/07/13 10:19:28;;;;;;;1.50;0.90;;;21.40;98.20;;;;;;4990041;28;20493;-79
2021/07/13 10:21:56;;;;;;;1.50;0.90;;;21.40;98.20;;;;;;4988689;28;20477;-78
2021/07/13 10:24:24;;;;;;;1.50;0.90;;;21.50;98.20;;;;;;4988366;28;20504;-77
2021/07/13 10:26:57;;;;;;;1.50;0.90;;;21.50;98.20;;;;;;4988233;28;20580;-77
2021/07/13 10:29:42;;;;;;;1.50;0.90;;;21.60;98.20;;;;;;4986092;28;20496;-78
2021/07/13 10:32:34;;;;;;;1.50;0.90;;;21.70;98.20;;;;;;4980660;28;20465;-77
2021/07/13 10:35:04;;;;;;;1.60;1.10;;;21.80;98.20;;;;;;4986598;28;20956;-78
2021/07/13 10:37:33;;;;;;;1.50;0.90;;;21.90;98.20;;;;;;4988743;28;20846;-78
2021/07/13 10:40:04;;;;;;;1.50;0.90;;;22.00;98.20;;;;;;4987373;28;20500;-78
2021/07/13 10:42:55;;;;;;;1.50;0.90;;;22.10;98.20;;;;;;4987073;28;20785;-77
2021/07/13 10:45:29;;;;;;;1.50;0.90;;;22.20;98.20;;;;;;4971662;28;20489;-78
2021/07/13 10:48:05;;;;;;;1.50;0.90;;;22.30;98.20;;;;;;4979926;28;20472;-78
2021/07/13 10:50:54;;;;;;;1.50;0.90;;;22.40;98.20;;;;;;4985909;28;20468;-79
2021/07/13 10:53:28;;;;;;;1.50;0.90;;;22.40;98.20;;;;;;4988227;28;20472;-77
2021/07/13 10:56:01;;;;;;;1.50;0.97;;;22.30;98.20;;;;;;4981486;28;20934;-77
2021/07/13 10:58:39;;;;;;;1.60;0.90;;;22.30;98.20;;;;;;4983102;28;20484;-78
2021/07/13 11:01:16;;;;;;;1.50;0.90;;;22.50;98.20;;;;;;4985318;28;20488;-80
2021/07/13 11:04:06;;;;;;;1.53;0.90;;;22.60;98.20;;;;;;4986052;28;20492;-78
2021/07/13 11:06:56;;;;;;;1.53;0.90;;;22.60;98.20;;;;;;4988192;28;21042;-77
2021/07/13 11:09:35;;;;;;;1.50;0.90;;;22.70;98.20;;;;;;4988432;28;20462;-77
2021/07/13 11:12:20;;;;;;;1.50;0.90;;;22.80;98.20;;;;;;4989700;28;20567;-77
2021/07/13 11:15:00;;;;;;;1.50;0.90;;;22.80;98.20;;;;;;4983860;28;20485;-76
2021/07/13 11:17:31;;;;;;;1.53;0.90;;;22.90;98.20;;;;;;4982451;28;20473;-78
2021/07/13 11:20:10;;;;;;;2.80;1.77;;;22.90;98.20;;;;;;4991490;28;20499;-77
2021/07/13 11:22:40;;;;;;;1.50;0.90;;;22.90;98.20;;;;;;4989384;28;20464;-77
2021/07/13 11:25:08;;;;;;;1.60;1.10;;;22.90;98.20;;;;;;4986053;28;20488;-78
2021/07/13 11:27:36;;;;;;;1.60;1.10;;;22.90;98.20;;;;;;4987279;28;20527;-77
2021/07/13 11:30:04;;;;;;;1.50;0.90;;;22.80;98.20;;;;;;4984506;28;20560;-77
2021/07/13 11:32:33;;;;;;;1.50;0.90;;;22.70;98.20;;;;;;4981517;28;20568;-78
2021/07/13 11:35:01;;;;;;;1.50;0.90;;;22.60;98.20;;;;;;4987344;28;21403;-77
2021/07/13 11:37:29;;;;;;;1.50;0.90;;;22.60;98.20;;;;;;4987168;28;20473;-78
2021/07/13 11:40:07;;;;;;;1.50;0.90;;;22.70;98.20;;;;;;4981267;28;20496;-77
2021/07/13 11:42:35;;;;;;;2.67;1.33;;;22.80;98.20;;;;;;4981678;28;20461;-77
2021/07/13 11:45:04;;;;;;;1.50;0.90;;;23.00;98.20;;;;;;4989458;28;20888;-78
2021/07/13 11:47:33;;;;;;;1.50;0.90;;;23.10;98.20;;;;;;4987978;28;20988;-77
2021/07/13 11:49:59;;;;;;;1.50;1.00;;;23.10;98.20;;;;;;4987404;28;20879;-77
2021/07/13 11:52:27;;;;;;;1.50;0.90;;;23.10;98.20;;;;;;4987745;28;20475;-76
2021/07/13 11:54:57;;;;;;;2.43;1.60;;;23.10;98.20;;;;;;4984449;28;20485;-78
2021/07/13 11:57:24;;;;;;;1.50;0.90;;;23.20;98.20;;;;;;4983557;28;20465;-77
2021/07/13 11:59:52;;;;;;;1.50;0.90;;;23.20;98.20;;;;;;4988947;28;20604;-77
2021/07/13 12:02:19;;;;;;;1.50;0.90;;;23.20;98.20;;;;;;4987757;28;20467;-77
2021/07/13 12:04:50;;;;;;;1.53;1.00;;;23.20;98.20;;;;;;4987401;28;20488;-77
2021/07/13 12:07:19;;;;;;;1.70;1.17;;;23.20;98.20;;;;;;4986708;28;20473;-76
2021/07/13 12:09:46;;;;;;;1.87;1.67;;;23.20;98.20;;;;;;4988787;28;20809;-76
2021/07/13 12:12:14;;;;;;;1.50;0.90;;;23.20;98.20;;;;;;4978045;28;20501;-77
2021/07/13 12:14:43;;;;;;;1.50;0.90;;;23.20;98.20;;;;;;4982595;28;20861;-78
2021/07/13 12:17:10;;;;;;;1.50;0.90;;;23.20;98.20;;;;;;4987200;28;20476;-78
2021/07/13 12:19:38;;;;;;;1.50;0.90;;;23.20;98.20;;;;;;4984805;28;20557;-77
2021/07/13 12:22:09;;;;;;;1.50;0.90;;;23.20;98.20;;;;;;4989275;28;20465;-77
2021/07/13 12:24:37;;;;;;;1.50;0.90;;;23.20;98.20;;;;;;4987557;28;20784;-77
2021/07/13 12:27:06;;;;;;;1.50;0.87;;;23.20;98.20;;;;;;4987633;28;20477;-78
2021/07/13 12:29:41;;;;;;;1.50;0.90;;;23.30;98.20;;;;;;4985377;28;20465;-78
2021/07/13 12:32:16;;;;;;;1.50;0.90;;;23.40;98.20;;;;;;4988413;28;20528;-77
2021/07/13 12:34:44;;;;;;;1.50;1.10;;;23.40;98.20;;;;;;4988782;28;20507;-78
2021/07/13 12:37:17;;;;;;;1.50;0.90;;;23.50;98.20;;;;;;4990299;28;20912;-78
2021/07/13 12:39:46;;;;;;;1.50;0.90;;;23.60;98.20;;;;;;4988260;28;20508;-78
2021/07/13 12:42:16;;;;;;;2.50;1.63;;;23.70;98.20;;;;;;4986572;28;20465;-81
2021/07/13 12:44:49;;;;;;;1.50;0.90;;;23.70;98.20;;;;;;4985902;28;20485;-79
2021/07/13 12:47:31;;;;;;;1.83;1.10;;;23.80;98.20;;;;;;4990407;28;20464;-78
2021/07/13 12:50:18;;;;;;;1.50;0.90;;;23.80;98.20;;;;;;4988877;28;20461;-78
2021/07/13 12:52:53;;;;;;;1.50;1.00;;;23.80;98.20;;;;;;4989276;28;20465;-77
2021/07/13 12:55:27;;;;;;;1.50;0.90;;;23.80;98.20;;;;;;4985522;28;20508;-78
2021/07/13 12:57:54;;;;;;;1.50;0.90;;;23.70;98.20;;;;;;4979720;28;20471;-78
2021/07/13 13:00:30;;;;;;;1.50;0.90;;;23.80;98.20;;;;;;4990856;28;20498;-78